createdAt,value
2022-09-25T00:00:26.175Z,0.00
2022-09-25T00:01:26.217Z,0.00
2022-09-25T00:02:26.236Z,0.00
2022-09-25T00:03:26.149Z,0.00
2022-09-25T00:04:26.140Z,0.00
2022-09-25T00:05:26.125Z,0.00
2022-09-25T00:06:26.101Z,0.00
2022-09-25T00:07:26.130Z,0.00
2022-09-25T00:08:26.098Z,0.00
2022-09-25T00:09:26.076Z,0.00
2022-09-25T00:10:26.069Z,0.00
2022-09-25T00:11:26.056Z,0.00
2022-09-25T00:12:26.061Z,0.00
2022-09-25T00:13:26.032Z,0.00
2022-09-25T00:14:26.015Z,0.00
2022-09-25T00:15:26.004Z,0.00
2022-09-25T00:16:26.184Z,0.00
2022-09-25T00:17:25.993Z,0.00
2022-09-25T00:18:25.997Z,0.00
2022-09-25T00:19:25.994Z,0.00
2022-09-25T00:20:25.979Z,0.00
2022-09-25T00:21:25.935Z,0.00
2022-09-25T00:22:25.924Z,0.00
2022-09-25T00:23:25.924Z,0.00
2022-09-25T00:24:25.923Z,0.00
2022-09-25T00:25:25.893Z,0.00
2022-09-25T00:26:25.904Z,0.00
2022-09-25T00:27:25.868Z,0.00
2022-09-25T00:28:25.868Z,0.00
2022-09-25T00:29:25.861Z,0.00
2022-09-25T00:30:25.842Z,0.00
2022-09-25T00:31:25.944Z,0.00
2022-09-25T00:32:25.857Z,0.00
2022-09-25T00:33:25.816Z,0.00
2022-09-25T00:34:25.800Z,0.00
2022-09-25T00:35:25.790Z,0.00
2022-09-25T00:36:25.806Z,0.00
2022-09-25T00:37:25.768Z,0.00
2022-09-25T00:38:25.761Z,0.00
2022-09-25T00:39:25.744Z,0.00
2022-09-25T00:40:25.813Z,0.00
2022-09-25T00:41:25.757Z,0.00
2022-09-25T00:42:25.715Z,0.00
2022-09-25T00:43:25.725Z,0.00
2022-09-25T00:44:25.705Z,0.00
2022-09-25T00:45:25.678Z,0.00
2022-09-25T00:46:25.687Z,0.00
2022-09-25T00:47:25.661Z,0.00
2022-09-25T00:48:25.685Z,0.00
2022-09-25T00:49:25.640Z,0.00
2022-09-25T00:50:25.619Z,0.00
2022-09-25T00:51:25.617Z,0.00
2022-09-25T00:52:25.625Z,0.00
2022-09-25T00:53:25.601Z,0.00
2022-09-25T00:54:25.579Z,0.00
2022-09-25T00:55:25.565Z,0.00
2022-09-25T00:56:25.574Z,0.00
2022-09-25T00:57:25.553Z,0.00
2022-09-25T00:58:25.561Z,0.00
2022-09-25T00:59:25.560Z,0.00
2022-09-25T01:00:25.534Z,0.00
2022-09-25T01:01:25.536Z,0.00
2022-09-25T01:02:25.522Z,0.00
2022-09-25T01:03:25.485Z,0.00
2022-09-25T01:04:25.503Z,0.00
2022-09-25T01:05:25.457Z,0.00
2022-09-25T01:06:25.452Z,0.00
2022-09-25T01:07:25.435Z,0.00
2022-09-25T01:08:25.451Z,0.00
2022-09-25T01:09:25.409Z,0.00
2022-09-25T01:10:25.440Z,0.00
2022-09-25T01:11:25.393Z,0.00
2022-09-25T01:12:25.408Z,0.00
2022-09-25T01:13:25.405Z,0.00
2022-09-25T01:14:25.364Z,0.00
2022-09-25T01:15:25.387Z,0.00
2022-09-25T01:16:25.388Z,0.00
2022-09-25T01:17:25.332Z,0.00
2022-09-25T01:18:25.316Z,0.00
2022-09-25T01:19:25.313Z,0.00
2022-09-25T01:20:25.320Z,0.00
2022-09-25T01:21:34.736Z,0.00
2022-09-25T01:22:25.281Z,0.00
2022-09-25T01:23:25.264Z,0.00
2022-09-25T01:24:25.245Z,0.00
2022-09-25T01:25:25.264Z,0.00
2022-09-25T01:26:25.241Z,0.00
2022-09-25T01:27:25.222Z,0.00
2022-09-25T01:28:25.229Z,0.00
2022-09-25T01:29:25.205Z,0.00
2022-09-25T01:30:25.261Z,0.00
2022-09-25T01:31:25.317Z,0.00
2022-09-25T01:32:25.163Z,0.00
2022-09-25T01:33:25.156Z,0.00
2022-09-25T01:34:25.138Z,0.00
2022-09-25T01:35:25.136Z,0.00
2022-09-25T01:36:25.125Z,0.00
2022-09-25T01:37:25.133Z,0.00
2022-09-25T01:38:25.095Z,0.00
2022-09-25T01:39:25.091Z,0.00
2022-09-25T01:40:25.202Z,0.00
2022-09-25T01:41:25.069Z,0.00
2022-09-25T01:42:25.055Z,0.00
2022-09-25T01:43:25.043Z,0.00
2022-09-25T01:44:25.143Z,0.00
2022-09-25T01:45:25.069Z,0.00
2022-09-25T01:46:25.070Z,0.00
2022-09-25T01:47:24.993Z,0.00
2022-09-25T01:48:24.988Z,0.00
2022-09-25T01:49:24.982Z,0.00
2022-09-25T01:50:24.969Z,0.00
2022-09-25T01:51:24.998Z,0.00
2022-09-25T01:52:24.951Z,0.00
2022-09-25T01:53:24.930Z,0.00
2022-09-25T01:54:24.956Z,0.00
2022-09-25T01:55:24.943Z,0.00
2022-09-25T01:56:24.939Z,0.00
2022-09-25T01:57:24.885Z,0.00
2022-09-25T01:58:24.881Z,0.00
2022-09-25T01:59:24.874Z,0.00
2022-09-25T02:00:24.912Z,0.00
2022-09-25T02:01:24.899Z,0.00
2022-09-25T02:02:24.905Z,0.00
2022-09-25T02:03:24.836Z,0.00
2022-09-25T02:04:24.810Z,0.00
2022-09-25T02:05:24.805Z,0.00
2022-09-25T02:06:24.811Z,0.00
2022-09-25T02:07:24.800Z,0.00
2022-09-25T02:08:24.778Z,0.00
2022-09-25T02:09:24.764Z,0.00
2022-09-25T02:10:24.751Z,0.00
2022-09-25T02:11:24.729Z,0.00
2022-09-25T02:12:24.748Z,0.00
2022-09-25T02:13:24.716Z,0.00
2022-09-25T02:14:24.708Z,0.00
2022-09-25T02:15:24.701Z,0.00
2022-09-25T02:16:24.766Z,0.00
2022-09-25T02:17:24.703Z,0.00
2022-09-25T02:18:24.663Z,0.00
2022-09-25T02:19:24.650Z,0.00
2022-09-25T02:20:24.642Z,0.00
2022-09-25T02:21:24.624Z,0.00
2022-09-25T02:22:24.638Z,0.00
2022-09-25T02:23:24.632Z,0.00
2022-09-25T02:24:24.592Z,0.00
2022-09-25T02:25:24.578Z,0.00
2022-09-25T02:26:24.569Z,0.00
2022-09-25T02:27:24.563Z,0.00
2022-09-25T02:28:24.571Z,0.00
2022-09-25T02:29:24.585Z,0.00
2022-09-25T02:30:24.599Z,0.00
2022-09-25T02:31:24.513Z,0.00
2022-09-25T02:32:24.521Z,0.00
2022-09-25T02:33:24.497Z,0.00
2022-09-25T02:34:24.485Z,0.00
2022-09-25T02:35:24.495Z,0.00
2022-09-25T02:36:24.471Z,0.00
2022-09-25T02:37:24.446Z,0.00
2022-09-25T02:38:24.436Z,0.00
2022-09-25T02:39:24.471Z,0.00
2022-09-25T02:40:24.596Z,0.00
2022-09-25T02:41:24.416Z,0.00
2022-09-25T02:42:24.400Z,0.00
2022-09-25T02:43:24.385Z,0.00
2022-09-25T02:44:24.366Z,0.00
2022-09-25T02:45:24.399Z,0.00
2022-09-25T02:46:24.422Z,0.00
2022-09-25T02:47:24.345Z,0.00
2022-09-25T02:48:24.347Z,0.00
2022-09-25T02:49:24.321Z,0.00
2022-09-25T02:50:24.321Z,0.00
2022-09-25T02:51:24.304Z,0.00
2022-09-25T02:52:24.282Z,0.00
2022-09-25T02:53:24.277Z,0.00
2022-09-25T02:54:24.279Z,0.00
2022-09-25T02:55:24.254Z,0.00
2022-09-25T02:56:24.262Z,0.00
2022-09-25T02:57:24.241Z,0.00
2022-09-25T02:58:24.219Z,0.00
2022-09-25T02:59:24.215Z,0.00
2022-09-25T03:00:24.209Z,0.00
2022-09-25T03:01:24.267Z,0.00
2022-09-25T03:02:24.266Z,0.00
2022-09-25T03:03:24.160Z,0.00
2022-09-25T03:04:24.171Z,0.00
2022-09-25T03:05:24.150Z,0.00
2022-09-25T03:06:24.138Z,0.00
2022-09-25T03:07:24.129Z,0.00
2022-09-25T03:08:24.124Z,0.00
2022-09-25T03:09:24.107Z,0.00
2022-09-25T03:10:24.092Z,0.00
2022-09-25T03:11:24.080Z,0.00
2022-09-25T03:12:24.090Z,0.00
2022-09-25T03:13:24.057Z,0.00
2022-09-25T03:14:24.043Z,0.00
2022-09-25T03:15:24.030Z,0.00
2022-09-25T03:16:24.118Z,0.00
2022-09-25T03:17:24.031Z,0.00
2022-09-25T03:18:23.999Z,0.00
2022-09-25T03:19:23.994Z,0.00
2022-09-25T03:20:24.003Z,0.00
2022-09-25T03:21:23.974Z,0.00
2022-09-25T03:22:23.957Z,0.00
2022-09-25T03:23:23.960Z,0.00
2022-09-25T03:24:23.938Z,0.00
2022-09-25T03:25:23.918Z,0.00
2022-09-25T03:26:23.910Z,0.00
2022-09-25T03:27:23.913Z,0.00
2022-09-25T03:28:23.915Z,0.00
2022-09-25T03:29:23.875Z,0.00
2022-09-25T03:30:23.877Z,0.00
2022-09-25T03:31:23.914Z,0.00
2022-09-25T03:32:23.842Z,0.00
2022-09-25T03:33:23.843Z,0.00
2022-09-25T03:34:23.829Z,0.00
2022-09-25T03:35:23.816Z,0.00
2022-09-25T03:36:23.921Z,0.00
2022-09-25T03:37:23.793Z,0.00
2022-09-25T03:38:23.789Z,0.00
2022-09-25T03:39:23.777Z,0.00
2022-09-25T03:40:23.776Z,0.00
2022-09-25T03:41:23.748Z,0.00
2022-09-25T03:42:23.738Z,0.00
2022-09-25T03:43:23.729Z,0.00
2022-09-25T03:44:23.719Z,0.00
2022-09-25T03:45:23.714Z,0.00
2022-09-25T03:46:23.773Z,0.00
2022-09-25T03:47:23.682Z,0.00
2022-09-25T03:48:23.686Z,0.00
2022-09-25T03:49:23.679Z,0.00
2022-09-25T03:50:23.649Z,0.00
2022-09-25T03:51:23.643Z,0.00
2022-09-25T03:52:23.639Z,0.00
2022-09-25T03:53:23.630Z,0.00
2022-09-25T03:54:23.613Z,0.00
2022-09-25T03:55:23.625Z,0.00
2022-09-25T03:56:23.577Z,0.00
2022-09-25T03:57:23.570Z,0.00
2022-09-25T03:58:23.569Z,0.00
2022-09-25T03:59:23.553Z,0.00
2022-09-25T04:00:23.545Z,0.00
2022-09-25T04:01:23.647Z,0.00
2022-09-25T04:02:23.593Z,0.00
2022-09-25T04:03:23.499Z,0.00
2022-09-25T04:04:23.489Z,0.00
2022-09-25T04:05:23.475Z,0.00
2022-09-25T04:06:23.493Z,0.00
2022-09-25T04:07:23.467Z,0.00
2022-09-25T04:08:23.479Z,0.00
2022-09-25T04:09:23.444Z,0.00
2022-09-25T04:10:23.422Z,0.00
2022-09-25T04:11:23.551Z,0.00
2022-09-25T04:12:23.436Z,0.00
2022-09-25T04:13:23.417Z,0.00
2022-09-25T04:14:23.376Z,0.00
2022-09-25T04:15:23.383Z,0.00
2022-09-25T04:16:23.399Z,0.00
2022-09-25T04:17:23.349Z,0.00
2022-09-25T04:18:23.334Z,0.00
2022-09-25T04:19:23.354Z,0.00
2022-09-25T04:20:23.311Z,0.00
2022-09-25T04:21:23.307Z,0.00
2022-09-25T04:22:23.301Z,0.00
2022-09-25T04:23:23.306Z,0.00
2022-09-25T04:24:23.289Z,0.00
2022-09-25T04:25:24.586Z,0.00
2022-09-25T04:26:23.257Z,0.00
2022-09-25T04:27:23.242Z,0.00
2022-09-25T04:28:23.224Z,0.00
2022-09-25T04:29:23.258Z,0.00
2022-09-25T04:30:23.208Z,0.00
2022-09-25T04:31:23.283Z,0.00
2022-09-25T04:32:23.202Z,0.00
2022-09-25T04:33:23.181Z,0.00
2022-09-25T04:34:23.160Z,0.00
2022-09-25T04:35:23.166Z,0.00
2022-09-25T04:36:23.140Z,0.00
2022-09-25T04:37:23.120Z,0.00
2022-09-25T04:38:23.119Z,0.00
2022-09-25T04:39:23.104Z,0.00
2022-09-25T04:40:23.180Z,0.00
2022-09-25T04:41:23.087Z,0.00
2022-09-25T04:42:23.067Z,0.00
2022-09-25T04:43:23.062Z,0.00
2022-09-25T04:44:23.046Z,0.00
2022-09-25T04:45:23.052Z,0.00
2022-09-25T04:46:23.213Z,0.00
2022-09-25T04:47:23.026Z,0.00
2022-09-25T04:48:23.009Z,0.00
2022-09-25T04:49:22.991Z,0.00
2022-09-25T04:50:23.001Z,0.00
2022-09-25T04:51:23.003Z,0.00
2022-09-25T04:52:22.961Z,0.00
2022-09-25T04:53:22.957Z,0.00
2022-09-25T04:54:22.941Z,0.00
2022-09-25T04:55:22.926Z,0.00
2022-09-25T04:56:22.934Z,0.00
2022-09-25T04:57:45.533Z,0.00
2022-09-25T04:58:23.893Z,0.00
2022-09-25T04:59:22.880Z,0.00
2022-09-25T05:00:22.879Z,0.00
2022-09-25T05:01:22.914Z,0.00
2022-09-25T05:02:22.939Z,0.00
2022-09-25T05:03:22.990Z,0.00
2022-09-25T05:04:22.837Z,0.00
2022-09-25T05:05:22.834Z,0.00
2022-09-25T05:06:22.906Z,0.00
2022-09-25T05:07:22.799Z,0.00
2022-09-25T05:08:22.803Z,0.00
2022-09-25T05:09:22.784Z,0.00
2022-09-25T05:10:22.765Z,0.00
2022-09-25T05:11:22.750Z,5.62
2022-09-25T05:12:22.763Z,5.62
2022-09-25T05:13:22.814Z,5.62
2022-09-25T05:14:22.734Z,5.62
2022-09-25T05:15:22.704Z,5.62
2022-09-25T05:16:22.810Z,5.62
2022-09-25T05:17:22.683Z,5.62
2022-09-25T05:18:22.683Z,5.62
2022-09-25T05:19:22.701Z,5.62
2022-09-25T05:20:22.656Z,5.62
2022-09-25T05:21:22.649Z,5.62
2022-09-25T05:22:22.641Z,5.62
2022-09-25T05:23:22.619Z,5.62
2022-09-25T05:24:22.613Z,11.25
2022-09-25T05:25:22.618Z,11.25
2022-09-25T05:26:22.580Z,11.25
2022-09-25T05:27:22.590Z,11.25
2022-09-25T05:28:22.584Z,11.25
2022-09-25T05:29:22.551Z,11.25
2022-09-25T05:30:22.558Z,11.25
2022-09-25T05:31:22.582Z,11.25
2022-09-25T05:32:22.534Z,16.88
2022-09-25T05:33:22.511Z,16.88
2022-09-25T05:34:22.496Z,16.88
2022-09-25T05:35:22.518Z,16.88
2022-09-25T05:36:22.495Z,16.88
2022-09-25T05:37:22.485Z,16.88
2022-09-25T05:38:22.479Z,22.50
2022-09-25T05:39:22.440Z,22.50
2022-09-25T05:40:22.661Z,22.50
2022-09-25T05:41:22.445Z,22.50
2022-09-25T05:42:22.407Z,22.50
2022-09-25T05:43:22.411Z,22.50
2022-09-25T05:44:22.404Z,28.12
2022-09-25T05:45:22.374Z,28.12
2022-09-25T05:46:22.424Z,33.75
2022-09-25T05:47:22.364Z,33.75
2022-09-25T05:48:22.353Z,33.75
2022-09-25T05:49:22.346Z,33.75
2022-09-25T05:50:22.361Z,39.38
2022-09-25T05:51:22.308Z,39.38
2022-09-25T05:52:22.316Z,39.38
2022-09-25T05:53:22.291Z,39.38
2022-09-25T05:54:22.274Z,39.38
2022-09-25T05:55:22.272Z,45.00
2022-09-25T05:56:22.253Z,45.00
2022-09-25T05:57:22.266Z,45.00
2022-09-25T05:58:22.236Z,50.62
2022-09-25T05:59:22.243Z,50.62
2022-09-25T06:00:22.324Z,56.25
2022-09-25T06:01:22.244Z,61.88
2022-09-25T06:02:22.188Z,61.88
2022-09-25T06:03:22.223Z,61.88
2022-09-25T06:04:22.165Z,61.88
2022-09-25T06:05:22.157Z,61.88
2022-09-25T06:06:26.678Z,61.88
2022-09-25T06:07:22.144Z,61.88
2022-09-25T06:08:22.363Z,67.50
2022-09-25T06:09:22.112Z,67.50
2022-09-25T06:10:22.098Z,67.50
2022-09-25T06:11:22.096Z,73.12
2022-09-25T06:12:22.081Z,78.75
2022-09-25T06:13:22.071Z,78.75
2022-09-25T06:14:22.067Z,84.38
2022-09-25T06:15:22.052Z,90.00
2022-09-25T06:16:22.100Z,95.62
2022-09-25T06:17:22.030Z,106.88
2022-09-25T06:18:22.026Z,112.50
2022-09-25T06:19:22.020Z,112.50
2022-09-25T06:20:22.013Z,118.12
2022-09-25T06:21:21.977Z,118.12
2022-09-25T06:22:21.972Z,118.12
2022-09-25T06:23:21.957Z,118.12
2022-09-25T06:24:22.042Z,123.75
2022-09-25T06:25:21.965Z,129.38
2022-09-25T06:26:21.923Z,129.38
2022-09-25T06:27:21.919Z,129.38
2022-09-25T06:28:21.910Z,135.00
2022-09-25T06:29:21.898Z,135.00
2022-09-25T06:30:21.880Z,135.00
2022-09-25T06:31:21.989Z,135.00
2022-09-25T06:32:21.874Z,135.00
2022-09-25T06:33:21.857Z,129.38
2022-09-25T06:34:21.839Z,123.75
2022-09-25T06:35:21.841Z,118.12
2022-09-25T06:36:21.845Z,118.12
2022-09-25T06:37:21.808Z,112.50
2022-09-25T06:38:21.802Z,112.50
2022-09-25T06:39:21.782Z,112.50
2022-09-25T06:40:21.951Z,106.88
2022-09-25T06:41:21.869Z,106.88
2022-09-25T06:42:21.758Z,106.88
2022-09-25T06:43:21.739Z,101.25
2022-09-25T06:44:21.731Z,101.25
2022-09-25T06:45:21.717Z,95.62
2022-09-25T06:46:21.856Z,95.62
2022-09-25T06:47:26.616Z,95.62
2022-09-25T06:48:22.723Z,101.25
2022-09-25T06:49:21.766Z,101.25
2022-09-25T06:50:21.663Z,101.25
2022-09-25T06:51:21.657Z,101.25
2022-09-25T06:52:21.646Z,101.25
2022-09-25T06:53:21.647Z,101.25
2022-09-25T06:54:21.663Z,101.25
2022-09-25T06:55:21.706Z,101.25
2022-09-25T06:56:21.815Z,106.88
2022-09-25T06:57:21.622Z,106.88
2022-09-25T06:58:21.603Z,112.50
2022-09-25T06:59:21.745Z,112.50
2022-09-25T07:00:21.628Z,112.50
2022-09-25T07:01:21.594Z,118.12
2022-09-25T07:02:21.673Z,118.12
2022-09-25T07:03:21.573Z,123.75
2022-09-25T07:04:21.520Z,129.38
2022-09-25T07:05:21.530Z,129.38
2022-09-25T07:06:21.501Z,129.38
2022-09-25T07:07:21.478Z,123.75
2022-09-25T07:08:21.482Z,118.12
2022-09-25T07:09:21.526Z,112.50
2022-09-25T07:10:21.437Z,112.50
2022-09-25T07:11:21.527Z,106.88
2022-09-25T07:12:21.433Z,112.50
2022-09-25T07:13:21.433Z,112.50
2022-09-25T07:14:21.454Z,118.12
2022-09-25T07:15:21.412Z,118.12
2022-09-25T07:16:21.573Z,123.75
2022-09-25T07:17:21.377Z,123.75
2022-09-25T07:18:21.464Z,129.38
2022-09-25T07:19:25.666Z,129.38
2022-09-25T07:20:22.380Z,129.38
2022-09-25T07:21:21.409Z,129.38
2022-09-25T07:22:21.318Z,135.00
2022-09-25T07:23:21.366Z,140.62
2022-09-25T07:24:21.291Z,151.88
2022-09-25T07:25:21.367Z,157.50
2022-09-25T07:26:21.289Z,168.75
2022-09-25T07:27:21.361Z,180.00
2022-09-25T07:28:21.256Z,191.25
2022-09-25T07:29:21.256Z,191.25
2022-09-25T07:30:21.259Z,196.88
2022-09-25T07:31:21.339Z,196.88
2022-09-25T07:32:21.281Z,213.75
2022-09-25T07:33:21.188Z,225.00
2022-09-25T07:34:21.237Z,230.62
2022-09-25T07:35:21.180Z,247.50
2022-09-25T07:36:21.227Z,275.62
2022-09-25T07:37:21.147Z,258.75
2022-09-25T07:38:21.189Z,275.62
2022-09-25T07:39:21.135Z,270.00
2022-09-25T07:40:21.252Z,241.88
2022-09-25T07:41:21.104Z,236.25
2022-09-25T07:42:21.225Z,225.00
2022-09-25T07:43:21.097Z,202.50
2022-09-25T07:44:30.300Z,191.25
2022-09-25T07:45:22.061Z,191.25
2022-09-25T07:46:21.171Z,196.88
2022-09-25T07:47:21.076Z,196.88
2022-09-25T07:48:21.037Z,196.88
2022-09-25T07:49:21.026Z,196.88
2022-09-25T07:50:21.029Z,202.50
2022-09-25T07:51:21.005Z,196.88
2022-09-25T07:52:21.010Z,191.25
2022-09-25T07:53:20.994Z,196.88
2022-09-25T07:54:20.967Z,202.50
2022-09-25T07:55:20.958Z,219.38
2022-09-25T07:56:20.943Z,230.62
2022-09-25T07:57:20.979Z,241.88
2022-09-25T07:58:21.090Z,258.75
2022-09-25T07:59:20.921Z,270.00
2022-09-25T08:00:20.918Z,264.38
2022-09-25T08:01:21.228Z,264.38
2022-09-25T08:02:20.967Z,264.38
2022-09-25T08:03:21.079Z,264.38
2022-09-25T08:04:20.862Z,258.75
2022-09-25T08:05:20.843Z,258.75
2022-09-25T08:06:20.949Z,264.38
2022-09-25T08:07:20.853Z,264.38
2022-09-25T08:08:20.831Z,264.38
2022-09-25T08:09:20.826Z,264.38
2022-09-25T08:10:20.791Z,264.38
2022-09-25T08:11:20.783Z,264.38
2022-09-25T08:12:20.816Z,270.00
2022-09-25T08:13:20.834Z,253.12
2022-09-25T08:14:25.912Z,236.25
2022-09-25T08:15:21.744Z,219.38
2022-09-25T08:16:20.867Z,208.12
2022-09-25T08:17:20.721Z,213.75
2022-09-25T08:18:20.720Z,219.38
2022-09-25T08:19:20.725Z,230.62
2022-09-25T08:20:20.840Z,230.62
2022-09-25T08:21:20.667Z,219.38
2022-09-25T08:22:20.663Z,213.75
2022-09-25T08:23:20.787Z,208.12
2022-09-25T08:24:20.715Z,208.12
2022-09-25T08:25:20.719Z,219.38
2022-09-25T08:26:20.820Z,230.62
2022-09-25T08:27:20.629Z,236.25
2022-09-25T08:28:20.596Z,236.25
2022-09-25T08:29:20.603Z,241.88
2022-09-25T08:30:20.715Z,241.88
2022-09-25T08:31:20.835Z,241.88
2022-09-25T08:32:20.647Z,236.25
2022-09-25T08:33:20.638Z,230.62
2022-09-25T08:34:40.128Z,219.38
2022-09-25T08:35:21.506Z,208.12
2022-09-25T08:36:20.672Z,185.62
2022-09-25T08:37:20.528Z,174.38
2022-09-25T08:38:20.541Z,168.75
2022-09-25T08:39:20.803Z,157.50
2022-09-25T08:40:20.689Z,151.88
2022-09-25T08:41:20.540Z,140.62
2022-09-25T08:42:20.652Z,135.00
2022-09-25T08:43:20.651Z,135.00
2022-09-25T08:44:20.410Z,135.00
2022-09-25T08:45:21.920Z,140.62
2022-09-25T08:46:20.471Z,146.25
2022-09-25T08:47:20.410Z,157.50
2022-09-25T08:48:20.427Z,157.50
2022-09-25T08:49:20.358Z,151.88
2022-09-25T08:50:20.607Z,146.25
2022-09-25T08:51:20.344Z,140.62
2022-09-25T08:52:20.860Z,140.62
2022-09-25T08:54:20.320Z,151.88
2022-09-25T08:55:20.302Z,168.75
2022-09-25T08:56:20.454Z,185.62
2022-09-25T08:57:20.283Z,208.12
2022-09-25T08:58:20.322Z,225.00
2022-09-25T08:59:20.326Z,230.62
2022-09-25T09:00:20.267Z,241.88
2022-09-25T09:01:20.326Z,264.38
2022-09-25T09:02:20.324Z,275.62
2022-09-25T09:03:20.260Z,286.88
2022-09-25T09:04:20.936Z,309.38
2022-09-25T09:05:20.185Z,365.62
2022-09-25T09:06:20.173Z,315.00
2022-09-25T09:07:28.309Z,326.25
2022-09-25T09:08:21.154Z,405.00
2022-09-25T09:09:20.144Z,365.62
2022-09-25T09:10:20.153Z,286.88
2022-09-25T09:11:20.159Z,275.62
2022-09-25T09:12:20.232Z,275.62
2022-09-25T09:13:20.911Z,275.62
2022-09-25T09:14:20.492Z,270.00
2022-09-25T09:15:20.100Z,270.00
2022-09-25T09:16:20.111Z,270.00
2022-09-25T09:17:20.177Z,281.25
2022-09-25T09:18:20.058Z,303.75
2022-09-25T09:19:20.040Z,376.88
2022-09-25T09:20:20.051Z,1102.50
2022-09-25T09:21:20.027Z,894.38
2022-09-25T09:22:20.037Z,697.50
2022-09-25T09:23:19.993Z,466.88
2022-09-25T09:24:19.993Z,511.88
2022-09-25T09:25:19.973Z,556.88
2022-09-25T09:26:20.039Z,652.50
2022-09-25T09:27:19.995Z,798.75
2022-09-25T09:28:19.962Z,742.50
2022-09-25T09:29:19.956Z,669.38
2022-09-25T09:30:19.914Z,669.38
2022-09-25T09:31:19.999Z,562.50
2022-09-25T09:32:20.061Z,590.62
2022-09-25T09:33:19.907Z,590.62
2022-09-25T09:34:20.459Z,770.62
2022-09-25T09:35:19.869Z,793.12
2022-09-25T09:36:19.873Z,725.62
2022-09-25T09:37:19.991Z,765.00
2022-09-25T09:38:20.390Z,573.75
2022-09-25T09:39:19.860Z,720.00
2022-09-25T09:40:19.887Z,646.88
2022-09-25T09:41:19.826Z,787.50
2022-09-25T09:42:19.840Z,742.50
2022-09-25T09:43:19.794Z,843.75
2022-09-25T09:44:19.791Z,742.50
2022-09-25T09:45:19.749Z,888.75
2022-09-25T09:46:19.792Z,990.00
2022-09-25T09:47:19.769Z,1288.12
2022-09-25T09:48:19.756Z,1119.38
2022-09-25T09:49:19.713Z,1440.00
2022-09-25T09:50:19.733Z,922.50
2022-09-25T09:51:19.691Z,585.00
2022-09-25T09:52:19.689Z,590.62
2022-09-25T09:53:19.688Z,725.62
2022-09-25T09:54:19.687Z,838.12
2022-09-25T09:55:19.657Z,646.88
2022-09-25T09:56:19.642Z,585.00
2022-09-25T09:57:19.664Z,551.25
2022-09-25T09:58:19.615Z,556.88
2022-09-25T09:59:19.651Z,545.62
2022-09-25T10:00:19.621Z,511.88
2022-09-25T10:01:40.401Z,483.75
2022-09-25T10:02:20.648Z,478.12
2022-09-25T10:03:19.678Z,433.12
2022-09-25T10:04:19.563Z,438.75
2022-09-25T10:05:19.570Z,405.00
2022-09-25T10:06:22.622Z,376.88
2022-09-25T10:07:20.392Z,371.25
2022-09-25T10:08:19.535Z,382.50
2022-09-25T10:09:19.508Z,388.12
2022-09-25T10:10:19.489Z,416.25
2022-09-25T10:11:19.510Z,399.38
2022-09-25T10:12:19.476Z,466.88
2022-09-25T10:13:19.494Z,393.75
2022-09-25T10:14:19.430Z,371.25
2022-09-25T10:15:19.434Z,376.88
2022-09-25T10:16:19.584Z,360.00
2022-09-25T10:17:19.405Z,337.50
2022-09-25T10:18:19.392Z,337.50
2022-09-25T10:19:19.386Z,315.00
2022-09-25T10:20:19.424Z,309.38
2022-09-25T10:21:19.388Z,320.62
2022-09-25T10:22:19.378Z,371.25
2022-09-25T10:23:19.365Z,416.25
2022-09-25T10:24:19.355Z,450.00
2022-09-25T10:25:19.336Z,450.00
2022-09-25T10:26:19.371Z,450.00
2022-09-25T10:27:19.317Z,438.75
2022-09-25T10:28:19.292Z,427.50
2022-09-25T10:29:19.297Z,416.25
2022-09-25T10:30:19.257Z,393.75
2022-09-25T10:31:19.382Z,382.50
2022-09-25T10:32:19.441Z,365.62
2022-09-25T10:33:19.305Z,354.38
2022-09-25T10:34:19.225Z,337.50
2022-09-25T10:35:19.297Z,320.62
2022-09-25T10:36:19.254Z,309.38
2022-09-25T10:37:19.187Z,303.75
2022-09-25T10:38:19.184Z,303.75
2022-09-25T10:39:43.030Z,298.12
2022-09-25T10:40:20.246Z,298.12
2022-09-25T10:41:19.199Z,292.50
2022-09-25T10:42:22.474Z,292.50
2022-09-25T10:43:28.466Z,292.50
2022-09-25T10:44:19.121Z,286.88
2022-09-25T10:45:19.120Z,292.50
2022-09-25T10:46:19.216Z,326.25
2022-09-25T10:47:19.085Z,354.38
2022-09-25T10:48:19.086Z,354.38
2022-09-25T10:49:19.075Z,348.75
2022-09-25T10:50:19.042Z,320.62
2022-09-25T10:51:19.026Z,286.88
2022-09-25T10:52:20.189Z,241.88
2022-09-25T10:53:19.012Z,219.38
2022-09-25T10:54:19.033Z,225.00
2022-09-25T10:55:18.991Z,230.62
2022-09-25T10:56:18.974Z,241.88
2022-09-25T10:57:18.963Z,241.88
2022-09-25T10:58:18.958Z,241.88
2022-09-25T10:59:19.202Z,241.88
2022-09-25T11:00:18.959Z,230.62
2022-09-25T11:01:18.989Z,236.25
2022-09-25T11:02:19.024Z,253.12
2022-09-25T11:03:18.893Z,241.88
2022-09-25T11:04:18.907Z,253.12
2022-09-25T11:05:18.894Z,230.62
2022-09-25T11:06:18.894Z,213.75
2022-09-25T11:07:18.854Z,225.00
2022-09-25T11:08:18.863Z,225.00
2022-09-25T11:09:18.848Z,225.00
2022-09-25T11:10:18.840Z,236.25
2022-09-25T11:11:18.813Z,225.00
2022-09-25T11:12:18.813Z,219.38
2022-09-25T11:13:18.792Z,225.00
2022-09-25T11:14:18.781Z,225.00
2022-09-25T11:15:18.771Z,225.00
2022-09-25T11:16:18.857Z,213.75
2022-09-25T11:17:18.754Z,208.12
2022-09-25T11:18:18.732Z,202.50
2022-09-25T11:19:18.741Z,208.12
2022-09-25T11:20:18.743Z,208.12
2022-09-25T11:21:18.698Z,213.75
2022-09-25T11:22:18.717Z,213.75
2022-09-25T11:23:18.723Z,213.75
2022-09-25T11:24:18.678Z,208.12
2022-09-25T11:25:18.665Z,208.12
2022-09-25T11:26:18.648Z,213.75
2022-09-25T11:27:18.653Z,213.75
2022-09-25T11:28:18.629Z,208.12
2022-09-25T11:29:18.677Z,213.75
2022-09-25T11:30:18.689Z,213.75
2022-09-25T11:31:18.652Z,213.75
2022-09-25T11:32:18.742Z,213.75
2022-09-25T11:33:18.591Z,219.38
2022-09-25T11:34:18.572Z,219.38
2022-09-25T11:35:18.555Z,213.75
2022-09-25T11:36:18.577Z,202.50
2022-09-25T11:37:18.576Z,196.88
2022-09-25T11:38:18.531Z,202.50
2022-09-25T11:39:18.501Z,213.75
2022-09-25T11:40:18.561Z,219.38
2022-09-25T11:41:18.497Z,225.00
2022-09-25T11:42:18.503Z,225.00
2022-09-25T11:43:18.471Z,219.38
2022-09-25T11:44:18.466Z,213.75
2022-09-25T11:45:18.446Z,213.75
2022-09-25T11:46:18.516Z,213.75
2022-09-25T11:47:18.522Z,208.12
2022-09-25T11:48:18.422Z,208.12
2022-09-25T11:49:18.849Z,202.50
2022-09-25T11:50:18.392Z,202.50
2022-09-25T11:51:18.381Z,196.88
2022-09-25T11:52:18.376Z,191.25
2022-09-25T11:53:18.359Z,191.25
2022-09-25T11:54:33.409Z,185.62
2022-09-25T11:55:19.350Z,185.62
2022-09-25T11:56:18.326Z,185.62
2022-09-25T11:57:18.307Z,174.38
2022-09-25T11:58:18.309Z,163.12
2022-09-25T11:59:18.287Z,163.12
2022-09-25T12:00:18.277Z,168.75
2022-09-25T12:01:18.306Z,174.38
2022-09-25T12:02:18.377Z,180.00
2022-09-25T12:03:18.254Z,185.62
2022-09-25T12:04:18.279Z,196.88
2022-09-25T12:05:18.256Z,225.00
2022-09-25T12:06:18.217Z,247.50
2022-09-25T12:07:18.202Z,236.25
2022-09-25T12:08:18.237Z,230.62
2022-09-25T12:09:18.183Z,247.50
2022-09-25T12:10:18.167Z,225.00
2022-09-25T12:11:18.162Z,219.38
2022-09-25T12:12:18.161Z,219.38
2022-09-25T12:13:18.154Z,219.38
2022-09-25T12:14:18.110Z,202.50
2022-09-25T12:15:18.111Z,185.62
2022-09-25T12:16:18.136Z,174.38
2022-09-25T12:17:18.087Z,163.12
2022-09-25T12:18:18.093Z,157.50
2022-09-25T12:19:18.096Z,157.50
2022-09-25T12:20:18.060Z,151.88
2022-09-25T12:21:18.040Z,157.50
2022-09-25T12:22:18.039Z,174.38
2022-09-25T12:23:18.026Z,191.25
2022-09-25T12:24:18.123Z,219.38
2022-09-25T12:25:18.011Z,219.38
2022-09-25T12:26:17.985Z,225.00
2022-09-25T12:27:17.978Z,219.38
2022-09-25T12:28:17.960Z,208.12
2022-09-25T12:29:17.992Z,174.38
2022-09-25T12:30:17.966Z,180.00
2022-09-25T12:31:17.986Z,180.00
2022-09-25T12:32:17.921Z,180.00
2022-09-25T12:33:17.914Z,151.88
2022-09-25T12:34:17.896Z,146.25
2022-09-25T12:35:17.952Z,163.12
2022-09-25T12:36:17.878Z,135.00
2022-09-25T12:37:17.865Z,118.12
2022-09-25T12:38:17.851Z,129.38
2022-09-25T12:39:17.848Z,146.25
2022-09-25T12:40:18.037Z,151.88
2022-09-25T12:41:17.846Z,168.75
2022-09-25T12:42:17.833Z,174.38
2022-09-25T12:43:17.803Z,168.75
2022-09-25T12:44:17.785Z,163.12
2022-09-25T12:45:17.800Z,157.50
2022-09-25T12:46:17.834Z,129.38
2022-09-25T12:47:17.781Z,118.12
2022-09-25T12:48:17.854Z,112.50
2022-09-25T12:49:17.738Z,112.50
2022-09-25T12:50:17.721Z,101.25
2022-09-25T12:51:17.715Z,95.62